Time;durP1;ratioP1;P1;durP2;ratioP2;P2;SDS_P1;SDS_P2;PMS_P1;PMS_P2;Temp;Humidity;BMP_temperature;BMP_pressure;BME280_temperature;BME280_humidity;BME280_pressure;Samples;Min_cycle;Max_cycle;Signal;HPM_P1;HPM_P2
2021/10/06 00:01:40;;;;;;;6.95;1.25;;;12.30;99.90;;;;;;5051254;28;39427;-78
2021/10/06 00:04:06;;;;;;;18.65;1.67;;;12.40;99.90;;;;;;5066960;28;37408;-77
2021/10/06 00:06:33;;;;;;;14.43;1.75;;;12.40;99.90;;;;;;5053933;28;40607;-78
2021/10/06 00:08:59;;;;;;;8.45;1.40;;;12.50;99.90;;;;;;5049887;28;40317;-78
2021/10/06 00:11:26;;;;;;;7.55;1.15;;;12.50;99.90;;;;;;5065731;28;38121;-78
2021/10/06 00:13:53;;;;;;;13.90;1.45;;;12.50;99.90;;;;;;5047812;28;37796;-79
2021/10/06 00:16:19;;;;;;;9.65;1.58;;;12.50;99.90;;;;;;5044025;28;39535;-78
2021/10/06 00:18:46;;;;;;;11.38;1.55;;;12.50;99.90;;;;;;5039467;28;39134;-78
2021/10/06 00:21:13;;;;;;;9.15;1.60;;;12.50;99.90;;;;;;5045026;28;38542;-78
2021/10/06 00:23:39;;;;;;;7.13;1.05;;;12.50;99.90;;;;;;5046923;28;39200;-78
2021/10/06 00:26:06;;;;;;;8.27;1.27;;;12.50;99.90;;;;;;5042753;28;37328;-78
2021/10/06 00:28:32;;;;;;;7.00;1.23;;;12.60;99.90;;;;;;5050588;28;38589;-78
2021/10/06 00:30:59;;;;;;;6.25;0.90;;;12.50;99.90;;;;;;5049120;28;38311;-79
2021/10/06 00:33:25;;;;;;;7.97;0.80;;;12.50;99.90;;;;;;5046186;28;37805;-77
2021/10/06 00:35:52;;;;;;;10.95;1.30;;;12.50;99.90;;;;;;5042936;28;39519;-78
2021/10/06 00:38:19;;;;;;;5.40;1.10;;;12.50;99.90;;;;;;5043734;28;40286;-77
2021/10/06 00:40:45;;;;;;;5.22;0.93;;;12.50;99.90;;;;;;5042172;28;40868;-78
2021/10/06 00:43:11;;;;;;;12.85;1.15;;;12.50;99.90;;;;;;5049664;28;38385;-78
2021/10/06 00:45:37;;;;;;;5.75;0.80;;;12.50;99.90;;;;;;5046384;28;41618;-78
2021/10/06 00:48:03;;;;;;;5.43;0.80;;;12.60;99.90;;;;;;5045173;28;37274;-79
2021/10/06 00:50:29;;;;;;;7.22;1.48;;;12.60;99.90;;;;;;5047777;28;38786;-78
2021/10/06 00:52:56;;;;;;;9.57;1.10;;;12.60;99.90;;;;;;5046562;28;38263;-78
2021/10/06 00:55:22;;;;;;;6.47;1.20;;;12.50;99.90;;;;;;5043483;28;36995;-78
2021/10/06 00:57:48;;;;;;;4.35;0.80;;;12.50;99.90;;;;;;5049016;28;36622;-78
2021/10/06 01:00:14;;;;;;;5.53;0.77;;;12.50;99.90;;;;;;5047318;28;37410;-79
2021/10/06 01:02:41;;;;;;;8.93;1.08;;;12.50;99.90;;;;;;5048173;28;36252;-78
2021/10/06 01:05:08;;;;;;;10.43;1.02;;;12.50;99.90;;;;;;5045404;28;38781;-78
2021/10/06 01:07:35;;;;;;;6.90;1.20;;;12.60;99.90;;;;;;5046826;28;39318;-78
2021/10/06 01:10:04;;;;;;;6.72;0.93;;;12.60;99.90;;;;;;5047307;28;40081;-78
2021/10/06 01:12:32;;;;;;;6.65;1.00;;;12.50;99.90;;;;;;5042325;28;48539;-78
2021/10/06 01:14:59;;;;;;;8.10;1.70;;;12.50;99.90;;;;;;5049144;28;39541;-78
2021/10/06 01:17:25;;;;;;;4.15;0.77;;;12.50;99.90;;;;;;5045857;28;36854;-78
2021/10/06 01:19:52;;;;;;;7.68;0.75;;;12.40;99.90;;;;;;5047597;28;39445;-78
2021/10/06 01:22:18;;;;;;;5.15;0.93;;;12.40;99.90;;;;;;5046165;28;38466;-78
2021/10/06 01:24:44;;;;;;;9.05;0.88;;;12.30;99.90;;;;;;5047989;28;36079;-79
2021/10/06 01:27:10;;;;;;;5.07;0.65;;;12.10;99.90;;;;;;5046175;28;38000;-78
2021/10/06 01:29:37;;;;;;;7.18;0.98;;;12.00;99.90;;;;;;5046887;28;39015;-78
2021/10/06 01:32:15;;;;;;;8.43;1.27;;;11.90;99.90;;;;;;5045262;28;38582;-78
2021/10/06 01:34:43;;;;;;;13.48;1.58;;;11.80;99.90;;;;;;5068895;28;38421;-79
2021/10/06 01:37:09;;;;;;;8.25;0.85;;;11.70;99.90;;;;;;5048052;28;39412;-79
2021/10/06 01:39:35;;;;;;;8.73;1.00;;;11.50;99.90;;;;;;5048740;28;37454;-78
2021/10/06 01:42:02;;;;;;;10.52;1.30;;;11.40;99.90;;;;;;5050280;28;37228;-79
2021/10/06 01:44:28;;;;;;;10.77;1.33;;;11.40;99.90;;;;;;5052470;28;48597;-79
2021/10/06 01:46:54;;;;;;;10.35;1.02;;;11.40;99.90;;;;;;5051367;28;37271;-79
2021/10/06 01:49:20;;;;;;;10.45;1.20;;;11.40;99.90;;;;;;5044405;28;39009;-79
2021/10/06 01:51:46;;;;;;;9.27;1.00;;;11.30;99.90;;;;;;5051933;28;37705;-78
2021/10/06 01:54:12;;;;;;;10.23;1.55;;;11.30;99.90;;;;;;5048794;28;39809;-78
2021/10/06 01:56:39;;;;;;;5.55;0.80;;;11.30;99.90;;;;;;5045209;28;42097;-78
2021/10/06 01:59:05;;;;;;;9.13;0.90;;;11.20;99.90;;;;;;5047772;28;38777;-78
2021/10/06 02:01:32;;;;;;;8.18;1.58;;;11.30;99.90;;;;;;5050353;28;37908;-78
2021/10/06 02:03:58;;;;;;;6.07;0.80;;;11.20;99.90;;;;;;5048025;28;40747;-78
2021/10/06 02:06:24;;;;;;;6.35;0.80;;;11.20;99.90;;;;;;5049204;28;36757;-79
2021/10/06 02:08:50;;;;;;;8.43;1.20;;;11.10;99.90;;;;;;5045276;28;38308;-78
2021/10/06 02:11:16;;;;;;;6.38;1.20;;;11.10;99.90;;;;;;5046562;28;38442;-78
2021/10/06 02:13:42;;;;;;;6.20;0.75;;;11.10;99.90;;;;;;5049693;28;39609;-78
2021/10/06 02:16:08;;;;;;;9.35;1.10;;;11.10;99.90;;;;;;5046564;28;38555;-78
2021/10/06 02:18:35;;;;;;;10.88;1.40;;;11.10;99.90;;;;;;5047135;28;38388;-79
2021/10/06 02:21:02;;;;;;;9.38;1.33;;;11.20;99.90;;;;;;5051051;28;37392;-78
2021/10/06 02:23:28;;;;;;;12.20;1.33;;;11.20;99.90;;;;;;5064907;28;37837;-78
2021/10/06 02:25:54;;;;;;;9.00;1.60;;;11.20;99.90;;;;;;5051347;28;38943;-78
2021/10/06 02:28:20;;;;;;;14.70;2.13;;;11.20;99.90;;;;;;5054053;28;37829;-78
2021/10/06 02:30:49;;;;;;;9.70;1.27;;;11.20;99.90;;;;;;5054010;28;37562;-78
2021/10/06 02:33:15;;;;;;;6.20;1.02;;;11.20;99.90;;;;;;5051681;28;39685;-78
2021/10/06 02:35:42;;;;;;;4.47;0.80;;;11.20;99.90;;;;;;5053624;28;42111;-78
2021/10/06 02:38:08;;;;;;;5.90;1.00;;;11.10;99.90;;;;;;5052639;28;38603;-78
2021/10/06 02:40:34;;;;;;;5.90;0.85;;;11.10;99.90;;;;;;5049505;28;37661;-78
2021/10/06 02:43:00;;;;;;;10.05;1.52;;;11.10;99.90;;;;;;5055276;28;37888;-78
2021/10/06 02:45:26;;;;;;;9.60;1.13;;;11.10;99.90;;;;;;5050339;28;38204;-78
2021/10/06 02:47:52;;;;;;;12.25;1.02;;;11.10;99.90;;;;;;5052065;28;38334;-78
2021/10/06 02:50:22;;;;;;;3.13;0.85;;;11.10;99.90;;;;;;5056344;28;38120;-78
2021/10/06 02:52:48;;;;;;;7.38;0.80;;;11.10;99.90;;;;;;5053015;28;40076;-78
2021/10/06 02:55:14;;;;;;;4.63;1.23;;;11.10;99.90;;;;;;5052731;28;37629;-77
2021/10/06 02:57:40;;;;;;;5.88;0.80;;;11.10;99.90;;;;;;5067371;28;38051;-79
2021/10/06 03:00:08;;;;;;;4.05;0.95;;;11.10;99.90;;;;;;5051145;28;37399;-78
2021/10/06 03:02:41;;;;;;;10.48;1.20;;;11.10;99.90;;;;;;5048598;28;48588;-79
2021/10/06 03:05:08;;;;;;;;;;;11.10;99.90;;;;;;5051620;28;37958;-80
2021/10/06 03:07:34;;;;;;;9.85;1.88;;;11.10;99.90;;;;;;5052963;28;40897;-79
2021/10/06 03:10:00;;;;;;;14.13;1.20;;;11.10;99.90;;;;;;5053552;28;36411;-79
2021/10/06 03:12:26;;;;;;;20.63;1.90;;;11.10;99.90;;;;;;5046789;28;47185;-79
2021/10/06 03:14:52;;;;;;;12.98;1.77;;;11.10;99.90;;;;;;5034015;28;37681;-79
2021/10/06 03:17:19;;;;;;;7.40;1.13;;;11.10;99.90;;;;;;5029371;28;37559;-79
2021/10/06 03:19:45;;;;;;;7.63;1.30;;;11.10;99.90;;;;;;5027974;28;37652;-79
2021/10/06 03:22:11;;;;;;;9.90;2.13;;;11.00;99.90;;;;;;5024474;28;39003;-79
2021/10/06 03:24:37;;;;;;;6.93;1.00;;;11.00;99.90;;;;;;5030098;28;37240;-79
2021/10/06 03:27:03;;;;;;;7.28;1.33;;;10.90;99.90;;;;;;5027769;28;36364;-78
2021/10/06 03:29:29;;;;;;;6.47;0.98;;;10.90;99.90;;;;;;5025408;28;36238;-79
2021/10/06 03:31:55;;;;;;;13.73;1.33;;;10.90;99.90;;;;;;5027144;28;39602;-79
2021/10/06 03:34:21;;;;;;;11.45;1.35;;;11.00;99.90;;;;;;5021519;28;39484;-79
2021/10/06 03:36:47;;;;;;;12.82;1.52;;;11.00;99.90;;;;;;5041193;28;38170;-79
2021/10/06 03:39:13;;;;;;;10.60;1.77;;;11.00;99.90;;;;;;5020709;28;37987;-79
2021/10/06 03:41:40;;;;;;;11.45;1.50;;;11.10;99.90;;;;;;5025065;28;39307;-79
2021/10/06 03:44:06;;;;;;;9.05;1.50;;;11.20;99.90;;;;;;5027168;28;38348;-79
2021/10/06 03:46:32;;;;;;;11.07;1.70;;;11.20;99.90;;;;;;5026415;28;38271;-79
2021/10/06 03:48:58;;;;;;;12.82;2.00;;;11.10;99.90;;;;;;5024653;28;36610;-79
2021/10/06 03:51:24;;;;;;;15.98;2.75;;;11.10;99.90;;;;;;5032008;28;38693;-79
2021/10/06 03:53:50;;;;;;;16.15;1.60;;;11.10;99.90;;;;;;5025774;28;37218;-79
2021/10/06 03:56:16;;;;;;;16.70;2.22;;;11.10;99.90;;;;;;5024407;28;37872;-78
2021/10/06 03:58:42;;;;;;;12.52;2.13;;;11.20;99.90;;;;;;5028029;28;38214;-79
2021/10/06 04:01:08;;;;;;;18.23;2.78;;;11.20;99.90;;;;;;5025103;28;39678;-79
2021/10/06 04:03:34;;;;;;;15.13;1.88;;;11.30;99.90;;;;;;5039077;28;38595;-79
2021/10/06 04:06:01;;;;;;;14.07;2.28;;;11.30;99.90;;;;;;5025623;28;38934;-78
2021/10/06 04:08:27;;;;;;;12.65;2.50;;;11.30;99.90;;;;;;5025911;28;47724;-79
2021/10/06 04:10:53;;;;;;;14.20;2.45;;;11.40;99.90;;;;;;5030807;28;37831;-78
2021/10/06 04:13:19;;;;;;;15.38;2.80;;;11.40;99.90;;;;;;5026215;28;39819;-79
2021/10/06 04:15:45;;;;;;;17.30;2.95;;;11.50;99.90;;;;;;5051447;28;37641;-78
2021/10/06 04:18:11;;;;;;;24.60;2.75;;;11.50;99.90;;;;;;5064873;28;36102;-79
2021/10/06 04:20:39;;;;;;;15.20;2.25;;;11.60;99.90;;;;;;5066133;28;39598;-79
2021/10/06 04:23:06;;;;;;;16.58;2.97;;;11.60;99.90;;;;;;5067471;28;39294;-79
2021/10/06 04:25:32;;;;;;;17.67;2.47;;;11.70;99.90;;;;;;5048632;28;40345;-79
2021/10/06 04:27:58;;;;;;;10.68;2.15;;;11.70;99.90;;;;;;5052452;28;35387;-79
2021/10/06 04:30:24;;;;;;;15.55;2.92;;;11.70;99.90;;;;;;5062936;28;38377;-79
2021/10/06 04:32:50;;;;;;;22.38;3.30;;;11.70;99.90;;;;;;5063743;28;39019;-80
2021/10/06 04:35:16;;;;;;;15.85;2.58;;;11.70;99.90;;;;;;5059573;28;38896;-79
2021/10/06 04:37:42;;;;;;;17.58;2.30;;;11.70;99.90;;;;;;5070743;28;37137;-79
2021/10/06 04:40:09;;;;;;;10.02;2.13;;;11.80;99.90;;;;;;5048325;28;38888;-80
2021/10/06 04:42:36;;;;;;;21.10;2.65;;;11.80;99.90;;;;;;5070954;28;39902;-79
2021/10/06 04:45:03;;;;;;;26.05;2.95;;;11.80;99.90;;;;;;5062826;28;39065;-78
2021/10/06 04:47:29;;;;;;;19.63;2.55;;;11.80;99.90;;;;;;5062825;28;38512;-79
2021/10/06 04:49:55;;;;;;;17.45;2.75;;;11.80;99.90;;;;;;5079056;28;38902;-78
2021/10/06 04:52:21;;;;;;;16.20;2.97;;;11.80;99.90;;;;;;5061857;28;38999;-78
2021/10/06 04:54:48;;;;;;;23.33;3.38;;;11.80;99.90;;;;;;5076863;28;40207;-79
2021/10/06 04:57:14;;;;;;;22.00;3.83;;;11.80;99.90;;;;;;5065337;28;37397;-78
2021/10/06 04:59:41;;;;;;;18.70;2.63;;;11.80;99.90;;;;;;5065044;28;38185;-78
2021/10/06 05:02:07;;;;;;;12.63;1.85;;;11.80;99.90;;;;;;5073872;28;38081;-78
2021/10/06 05:04:33;;;;;;;18.25;2.47;;;11.80;99.90;;;;;;5056728;28;38140;-78
2021/10/06 05:06:59;;;;;;;17.42;2.40;;;11.90;99.90;;;;;;5081725;28;37986;-78
2021/10/06 05:09:25;;;;;;;20.17;2.88;;;11.90;99.90;;;;;;5080508;28;38633;-78
2021/10/06 05:11:51;;;;;;;18.75;2.50;;;11.90;99.90;;;;;;5062299;28;39817;-78
2021/10/06 05:14:17;;;;;;;12.52;2.92;;;11.90;99.90;;;;;;5080195;28;37844;-78
2021/10/06 05:16:43;;;;;;;16.17;1.90;;;11.90;99.90;;;;;;5081107;28;36735;-78
2021/10/06 05:19:12;;;;;;;14.93;2.10;;;11.90;99.90;;;;;;5062703;28;39252;-78
2021/10/06 05:21:39;;;;;;;20.10;2.03;;;11.90;99.90;;;;;;5057245;28;38667;-78
2021/10/06 05:24:06;;;;;;;16.23;2.47;;;11.90;99.90;;;;;;5062144;28;38968;-78
2021/10/06 05:26:32;;;;;;;16.42;2.67;;;11.90;99.90;;;;;;5061934;28;39498;-78
2021/10/06 05:28:58;;;;;;;21.08;2.95;;;11.90;99.90;;;;;;5082691;28;39271;-78
2021/10/06 05:31:24;;;;;;;13.25;2.67;;;11.90;99.90;;;;;;5073659;28;38674;-78
2021/10/06 05:33:51;;;;;;;14.13;2.38;;;11.90;99.90;;;;;;5077531;28;38189;-78
2021/10/06 05:36:17;;;;;;;14.13;1.95;;;12.00;99.90;;;;;;5081097;28;37953;-79
2021/10/06 05:38:44;;;;;;;12.10;2.10;;;12.00;99.90;;;;;;5058483;28;38737;-79
2021/10/06 05:41:10;;;;;;;16.60;2.15;;;12.00;99.90;;;;;;5057421;28;37421;-78
2021/10/06 05:43:36;;;;;;;15.05;2.13;;;12.00;99.90;;;;;;5085298;28;37934;-79
2021/10/06 05:46:02;;;;;;;15.60;2.55;;;12.00;99.90;;;;;;5079438;28;36878;-79
2021/10/06 05:48:28;;;;;;;11.98;2.22;;;12.00;99.90;;;;;;5083110;28;38639;-79
2021/10/06 05:50:55;;;;;;;16.08;2.47;;;12.00;99.90;;;;;;5062971;28;39014;-79
2021/10/06 05:53:21;;;;;;;11.77;1.98;;;12.00;99.90;;;;;;5061240;28;38777;-79
2021/10/06 05:55:47;;;;;;;16.95;2.45;;;12.00;99.90;;;;;;5082932;28;37618;-79
2021/10/06 05:58:14;;;;;;;10.63;1.80;;;12.00;99.90;;;;;;5068085;28;41391;-78
2021/10/06 06:00:40;;;;;;;12.40;1.90;;;12.00;99.90;;;;;;5081978;28;38914;-79
2021/10/06 06:03:09;;;;;;;14.55;2.60;;;12.00;99.90;;;;;;5081645;28;39666;-79
2021/10/06 06:05:40;;;;;;;12.70;1.83;;;12.10;99.90;;;;;;5070195;28;36521;-78
2021/10/06 06:08:06;;;;;;;17.77;2.25;;;12.10;99.90;;;;;;5084834;28;38776;-78
2021/10/06 06:10:32;;;;;;;10.65;1.92;;;12.10;99.90;;;;;;5064011;28;38432;-78
2021/10/06 06:12:58;;;;;;;8.82;1.50;;;12.10;99.90;;;;;;5067968;28;38799;-78
2021/10/06 06:15:25;;;;;;;15.45;2.08;;;12.10;99.90;;;;;;5078801;28;37044;-77
2021/10/06 06:17:51;;;;;;;10.27;1.50;;;12.10;99.90;;;;;;5061039;28;39527;-78
2021/10/06 06:20:23;;;;;;;13.85;2.05;;;12.20;99.90;;;;;;5062115;28;38727;-78
2021/10/06 06:22:51;;;;;;;11.63;1.30;;;12.20;99.90;;;;;;5067183;28;38079;-78
2021/10/06 06:25:18;;;;;;;10.38;1.38;;;12.20;99.90;;;;;;5062472;28;38229;-78
2021/10/06 06:27:45;;;;;;;14.20;2.45;;;12.20;99.90;;;;;;5085476;28;38955;-78
2021/10/06 06:30:12;;;;;;;7.57;1.65;;;12.20;99.90;;;;;;5079935;28;38109;-78
2021/10/06 06:32:38;;;;;;;12.98;2.00;;;12.20;99.90;;;;;;5081098;28;38815;-78
2021/10/06 06:35:05;;;;;;;16.90;1.88;;;12.20;99.90;;;;;;5064411;28;38259;-78
2021/10/06 06:37:32;;;;;;;16.90;1.75;;;12.30;99.90;;;;;;5082963;28;38910;-78
2021/10/06 06:39:58;;;;;;;11.38;1.52;;;12.30;99.90;;;;;;5083910;28;38453;-78
2021/10/06 06:42:25;;;;;;;14.07;1.85;;;12.20;99.90;;;;;;5077269;28;36808;-78
2021/10/06 06:44:51;;;;;;;12.57;1.42;;;12.20;99.90;;;;;;5064683;28;39055;-78
2021/10/06 06:47:17;;;;;;;5.97;1.40;;;12.20;99.90;;;;;;5080463;28;38419;-79
2021/10/06 06:49:44;;;;;;;5.93;1.17;;;12.20;99.90;;;;;;5079608;28;39079;-78
2021/10/06 06:52:10;;;;;;;9.70;2.08;;;12.20;99.90;;;;;;5079842;28;38850;-78
2021/10/06 06:54:36;;;;;;;16.67;2.00;;;12.20;99.90;;;;;;5063887;28;39002;-79
2021/10/06 06:57:02;;;;;;;7.60;1.52;;;12.20;99.90;;;;;;5077863;28;39837;-78
2021/10/06 06:59:28;;;;;;;11.48;2.55;;;12.30;99.90;;;;;;5061099;28;39642;-78
2021/10/06 07:01:57;;;;;;;11.55;1.95;;;12.30;99.90;;;;;;5079484;28;39068;-78
2021/10/06 07:04:24;;;;;;;17.58;2.13;;;12.30;99.90;;;;;;5063737;28;39661;-79
2021/10/06 07:06:56;;;;;;;14.57;2.55;;;12.30;99.90;;;;;;5063466;28;40096;-78
2021/10/06 07:09:25;;;;;;;10.48;2.03;;;12.30;99.90;;;;;;5059650;28;40035;-78
2021/10/06 07:11:52;;;;;;;15.43;2.17;;;12.30;99.90;;;;;;5079944;28;36188;-78
2021/10/06 07:14:19;;;;;;;15.40;2.30;;;12.40;99.90;;;;;;5055766;28;37668;-78
2021/10/06 07:16:45;;;;;;;19.80;2.42;;;12.40;99.90;;;;;;5059835;28;40655;-78
2021/10/06 07:19:11;;;;;;;18.90;4.22;;;12.40;99.90;;;;;;5057116;28;38493;-78
2021/10/06 07:21:38;;;;;;;14.65;2.00;;;12.40;99.90;;;;;;5060531;28;37910;-78
2021/10/06 07:24:04;;;;;;;13.30;2.03;;;12.40;99.90;;;;;;5060310;28;37828;-79
2021/10/06 07:26:30;;;;;;;9.65;1.95;;;12.40;99.90;;;;;;5063651;28;37623;-78
2021/10/06 07:28:56;;;;;;;16.25;2.25;;;12.50;99.90;;;;;;5063783;28;38660;-78
2021/10/06 07:31:22;;;;;;;11.43;1.73;;;12.50;99.90;;;;;;5061368;28;38360;-78
2021/10/06 07:33:50;;;;;;;10.05;2.75;;;12.50;99.90;;;;;;5062583;28;37194;-79
2021/10/06 07:36:17;;;;;;;17.05;3.45;;;12.50;99.90;;;;;;5059636;28;38740;-78
2021/10/06 07:38:43;;;;;;;13.75;1.98;;;12.50;99.90;;;;;;5080819;28;39528;-78
2021/10/06 07:41:09;;;;;;;17.15;2.05;;;12.50;99.90;;;;;;5060725;28;39132;-77
2021/10/06 07:43:35;;;;;;;12.23;1.70;;;12.50;99.90;;;;;;5063570;28;37268;-78
2021/10/06 07:46:01;;;;;;;15.32;2.10;;;12.50;99.90;;;;;;5058496;28;39067;-78
2021/10/06 07:48:27;;;;;;;10.00;2.30;;;12.50;99.90;;;;;;5057058;28;46946;-79
2021/10/06 07:50:53;;;;;;;7.68;1.10;;;12.60;99.90;;;;;;5056767;28;38146;-78
2021/10/06 07:53:19;;;;;;;8.93;1.45;;;12.60;99.90;;;;;;5054558;28;36076;-77
2021/10/06 07:55:45;;;;;;;10.02;1.98;;;12.60;99.90;;;;;;5059326;28;39625;-78
2021/10/06 07:58:11;;;;;;;8.88;1.50;;;12.60;99.90;;;;;;5062691;28;40219;-78
2021/10/06 08:00:38;;;;;;;12.30;1.60;;;12.60;99.90;;;;;;5056059;28;39094;-78
2021/10/06 08:03:04;;;;;;;18.85;2.45;;;12.60;99.90;;;;;;5056851;28;40391;-78
2021/10/06 08:05:30;;;;;;;13.95;1.80;;;12.60;99.90;;;;;;5059190;28;39356;-79
2021/10/06 08:07:56;;;;;;;10.13;2.20;;;12.60;99.90;;;;;;5053103;28;37113;-78
2021/10/06 08:10:22;;;;;;;12.13;1.67;;;12.60;99.90;;;;;;5055339;28;39056;-78
2021/10/06 08:12:48;;;;;;;11.77;2.03;;;12.70;99.90;;;;;;5061598;28;37813;-78
2021/10/06 08:15:14;;;;;;;9.43;1.90;;;12.80;99.90;;;;;;5079039;28;37444;-78
2021/10/06 08:17:40;;;;;;;11.50;2.10;;;13.00;99.90;;;;;;5059511;28;37603;-78
2021/10/06 08:20:07;;;;;;;11.45;1.60;;;13.10;99.90;;;;;;5060179;28;38924;-77
2021/10/06 08:22:33;;;;;;;11.52;2.03;;;13.10;99.90;;;;;;5062374;28;37805;-78
2021/10/06 08:24:59;;;;;;;12.02;2.33;;;13.00;99.90;;;;;;5080734;28;39400;-79
2021/10/06 08:27:25;;;;;;;13.95;2.72;;;12.90;99.90;;;;;;5076674;28;40172;-79
2021/10/06 08:29:51;;;;;;;11.93;1.85;;;12.80;99.90;;;;;;5061102;28;38980;-78
2021/10/06 08:32:18;;;;;;;9.38;1.50;;;12.80;99.90;;;;;;5064765;28;38191;-78
2021/10/06 08:34:44;;;;;;;13.25;1.70;;;12.80;99.90;;;;;;5081508;28;39631;-78
2021/10/06 08:37:10;;;;;;;15.18;2.10;;;12.80;99.90;;;;;;5080158;28;39434;-78
2021/10/06 08:39:36;;;;;;;10.18;1.73;;;12.80;99.90;;;;;;5039534;28;38731;-79
2021/10/06 08:42:04;;;;;;;12.85;1.67;;;12.90;99.90;;;;;;5073991;28;37639;-77
2021/10/06 08:44:32;;;;;;;9.55;1.88;;;13.00;99.90;;;;;;5072222;28;48441;-78
2021/10/06 08:46:58;;;;;;;10.65;1.60;;;13.10;99.90;;;;;;5081687;28;38590;-78
2021/10/06 08:49:27;;;;;;;13.25;2.10;;;13.20;99.90;;;;;;5064346;28;37430;-78
2021/10/06 08:51:54;;;;;;;17.23;3.17;;;13.20;99.90;;;;;;5066520;28;36521;-78
2021/10/06 08:54:20;;;;;;;11.20;2.03;;;13.30;99.90;;;;;;5083166;28;40458;-77
2021/10/06 08:56:51;;;;;;;19.52;1.83;;;13.50;99.90;;;;;;5082083;28;38498;-75
2021/10/06 08:59:21;;;;;;;9.38;1.83;;;13.60;99.90;;;;;;5080236;28;20516;-76
2021/10/06 09:01:47;;;;;;;13.82;2.42;;;13.70;99.90;;;;;;5068229;28;37343;-76
2021/10/06 09:04:14;;;;;;;14.75;1.67;;;13.90;99.90;;;;;;5062688;28;37712;-77
2021/10/06 09:06:45;;;;;;;10.73;2.20;;;13.80;99.90;;;;;;5083174;28;38631;-77
2021/10/06 09:09:22;;;;;;;18.75;2.65;;;13.80;99.90;;;;;;5063960;28;39372;-77
2021/10/06 09:11:50;;;;;;;20.13;3.40;;;13.60;99.90;;;;;;5073090;28;36123;-76
2021/10/06 09:14:17;;;;;;;14.60;2.85;;;13.50;99.90;;;;;;5081350;28;38569;-77
2021/10/06 09:16:44;;;;;;;17.90;2.60;;;13.50;99.90;;;;;;5078964;28;39587;-77
2021/10/06 09:19:11;;;;;;;19.23;2.97;;;13.50;99.90;;;;;;5078291;28;38262;-76
2021/10/06 09:21:57;;;;;;;17.35;2.30;;;13.50;99.90;;;;;;5065909;28;36442;-76
2021/10/06 09:24:25;;;;;;;21.92;3.00;;;13.60;99.90;;;;;;5088800;28;39785;-77
2021/10/06 09:27:04;;;;;;;20.73;3.28;;;13.60;99.90;;;;;;5061392;28;37389;-77
2021/10/06 09:29:31;;;;;;;18.80;3.08;;;13.60;99.90;;;;;;5074232;28;48748;-77
2021/10/06 09:31:57;;;;;;;13.68;2.33;;;13.50;99.90;;;;;;5062235;28;36192;-77
2021/10/06 09:34:23;;;;;;;22.35;2.92;;;13.50;99.90;;;;;;5079959;28;38865;-77
2021/10/06 09:36:49;;;;;;;20.65;2.65;;;13.50;99.90;;;;;;5065020;28;37734;-77
2021/10/06 09:39:15;;;;;;;14.63;2.92;;;13.50;99.90;;;;;;5058820;28;37024;-77
2021/10/06 09:41:47;;;;;;;18.63;3.30;;;13.50;99.90;;;;;;5069831;28;36270;-77
2021/10/06 09:44:24;;;;;;;19.10;3.38;;;13.60;99.90;;;;;;5062682;28;40853;-77
2021/10/06 09:47:02;;;;;;;18.30;2.67;;;13.60;99.90;;;;;;5058742;28;39860;-77
2021/10/06 09:49:36;;;;;;;16.27;2.83;;;13.50;99.90;;;;;;5080156;28;48378;-77
2021/10/06 09:52:32;;;;;;;14.45;3.67;;;13.50;99.90;;;;;;5081775;28;37149;-77
2021/10/06 09:55:06;;;;;;;12.50;2.33;;;13.60;99.90;;;;;;5080449;28;39576;-77
2021/10/06 09:57:41;;;;;;;15.68;3.35;;;13.70;99.90;;;;;;5073736;28;47026;-77
2021/10/06 10:00:15;;;;;;;18.13;3.45;;;13.80;99.90;;;;;;5077694;28;38560;-76
2021/10/06 10:02:42;;;;;;;13.18;2.08;;;13.80;99.90;;;;;;5065034;28;38611;-77
2021/10/06 10:05:09;;;;;;;12.25;2.20;;;13.90;99.90;;;;;;5068886;28;39357;-77
2021/10/06 10:07:36;;;;;;;10.25;2.30;;;13.90;99.90;;;;;;5058011;28;39251;-77
2021/10/06 10:10:05;;;;;;;10.32;2.03;;;14.00;99.90;;;;;;5063195;28;39471;-77
2021/10/06 10:12:31;;;;;;;12.95;3.00;;;14.00;99.90;;;;;;5058571;28;47482;-77
2021/10/06 10:14:58;;;;;;;11.23;2.03;;;14.20;99.90;;;;;;5062010;28;39059;-77
2021/10/06 10:17:24;;;;;;;18.33;2.75;;;14.40;99.90;;;;;;5060116;28;39169;-77
2021/10/06 10:20:00;;;;;;;13.02;2.45;;;14.50;99.90;;;;;;5062003;28;37447;-78
2021/10/06 10:22:30;;;;;;;15.00;2.42;;;14.30;99.90;;;;;;5065105;28;37207;-77
2021/10/06 10:24:57;;;;;;;12.27;2.63;;;14.20;99.90;;;;;;5064881;28;40126;-77
2021/10/06 10:27:24;;;;;;;15.00;2.45;;;14.10;99.90;;;;;;5061246;28;38379;-78
2021/10/06 10:29:51;;;;;;;14.85;2.70;;;13.90;99.90;;;;;;5059466;28;38341;-77
2021/10/06 10:32:23;;;;;;;14.55;2.88;;;13.80;99.90;;;;;;5059434;28;38117;-79
2021/10/06 10:35:00;;;;;;;10.10;2.30;;;13.80;99.90;;;;;;5061949;28;39443;-79
2021/10/06 10:37:49;;;;;;;17.25;2.28;;;13.80;99.90;;;;;;5061064;28;38457;-78
2021/10/06 10:40:40;;;;;;;12.85;1.92;;;13.80;99.90;;;;;;5028258;28;39266;-79
2021/10/06 10:43:07;;;;;;;9.18;2.03;;;13.90;99.90;;;;;;5052504;28;38017;-79
2021/10/06 10:45:40;;;;;;;10.75;2.50;;;14.20;99.90;;;;;;5071341;28;39627;-80
2021/10/06 10:48:09;;;;;;;12.85;2.28;;;14.30;99.90;;;;;;5080998;28;39905;-79
2021/10/06 10:50:44;;;;;;;8.63;2.70;;;14.20;99.90;;;;;;5068383;28;38905;-79
2021/10/06 10:53:15;;;;;;;11.20;2.85;;;14.10;99.90;;;;;;5063885;28;38364;-78
2021/10/06 10:55:55;;;;;;;12.82;3.38;;;14.00;99.90;;;;;;5064903;28;40747;-78
2021/10/06 10:58:30;;;;;;;15.38;2.70;;;13.90;99.90;;;;;;5075048;28;38436;-79
2021/10/06 11:01:01;;;;;;;12.55;2.60;;;14.00;99.90;;;;;;5066848;28;38216;-79
2021/10/06 11:03:28;;;;;;;16.15;3.38;;;14.10;99.90;;;;;;5064409;28;46902;-79
2021/10/06 11:05:56;;;;;;;15.57;3.08;;;14.00;99.90;;;;;;5062128;28;39598;-79
2021/10/06 11:08:26;;;;;;;24.67;3.47;;;14.00;99.90;;;;;;5065282;28;38660;-81
2021/10/06 11:11:13;;;;;;;21.88;3.90;;;13.80;99.90;;;;;;5080514;28;37898;-81
2021/10/06 11:13:45;;;;;;;19.13;3.08;;;13.70;99.90;;;;;;5073130;28;47215;-80
2021/10/06 11:16:12;;;;;;;19.20;3.65;;;13.60;99.90;;;;;;5073233;28;39582;-80
2021/10/06 11:18:39;;;;;;;23.17;4.75;;;13.50;99.90;;;;;;5073910;28;38215;-79
2021/10/06 11:21:07;;;;;;;22.30;4.25;;;13.50;99.90;;;;;;5067595;28;38006;-80
2021/10/06 11:23:36;;;;;;;25.90;4.40;;;13.50;99.90;;;;;;5057081;28;37673;-79
2021/10/06 11:26:05;;;;;;;16.20;3.42;;;13.50;99.90;;;;;;5060037;28;39952;-79
2021/10/06 11:28:35;;;;;;;23.67;3.33;;;13.50;99.90;;;;;;5069503;28;39215;-79
2021/10/06 11:31:01;;;;;;;18.48;3.38;;;13.50;99.90;;;;;;5080458;28;38171;-79
2021/10/06 11:33:29;;;;;;;30.33;5.28;;;13.60;99.90;;;;;;5061905;28;47371;-78
2021/10/06 11:36:15;;;;;;;17.77;3.22;;;13.70;99.90;;;;;;5060792;28;38579;-78
2021/10/06 11:38:44;;;;;;;16.67;3.53;;;13.70;99.90;;;;;;5059913;28;47604;-78
2021/10/06 11:41:10;;;;;;;17.20;3.33;;;13.70;99.90;;;;;;5066188;28;38075;-77
2021/10/06 11:43:41;;;;;;;27.00;5.13;;;13.70;99.90;;;;;;5059035;28;37658;-79
2021/10/06 11:46:20;;;;;;;19.52;3.40;;;13.70;99.90;;;;;;5062301;28;39433;-78
2021/10/06 11:48:51;;;;;;;27.27;4.88;;;13.80;99.90;;;;;;5066307;28;41819;-78
2021/10/06 11:51:17;;;;;;;22.60;3.58;;;13.80;99.90;;;;;;5067187;28;38406;-78
2021/10/06 11:53:47;;;;;;;17.48;3.95;;;13.90;99.90;;;;;;5070339;28;37291;-78
2021/10/06 11:56:27;;;;;;;21.98;3.50;;;14.00;99.90;;;;;;5063172;28;39520;-79
2021/10/06 11:58:54;;;;;;;18.88;3.15;;;14.20;99.90;;;;;;5062420;28;37940;-79
2021/10/06 12:01:21;;;;;;;17.83;2.90;;;14.30;99.90;;;;;;5071268;28;38081;-79
2021/10/06 12:03:47;;;;;;;17.05;3.33;;;14.40;99.90;;;;;;5067738;28;37821;-78
2021/10/06 12:06:19;;;;;;;18.55;3.40;;;14.60;99.90;;;;;;5062745;28;38241;-79
2021/10/06 12:08:47;;;;;;;14.82;2.20;;;14.70;99.90;;;;;;5068091;28;38375;-78
2021/10/06 12:11:16;;;;;;;15.27;3.10;;;14.70;99.90;;;;;;5062228;28;38636;-79
2021/10/06 12:13:42;;;;;;;14.63;2.78;;;14.60;99.90;;;;;;5065557;28;36863;-78
2021/10/06 12:16:26;;;;;;;15.13;2.85;;;14.70;99.90;;;;;;5085249;28;39743;-78
2021/10/06 12:18:58;;;;;;;20.10;3.53;;;14.70;99.90;;;;;;5064060;28;38368;-78
2021/10/06 12:21:25;;;;;;;18.23;2.83;;;14.70;99.90;;;;;;5062291;28;36749;-77
2021/10/06 12:23:51;;;;;;;22.25;3.47;;;14.70;99.90;;;;;;5084397;28;38023;-78
2021/10/06 12:26:20;;;;;;;25.45;3.45;;;14.60;99.90;;;;;;5067408;28;38817;-78
2021/10/06 12:28:51;;;;;;;17.35;3.03;;;14.50;99.90;;;;;;5079224;28;39542;-78
2021/10/06 12:31:27;;;;;;;16.45;2.72;;;14.50;99.90;;;;;;5063068;28;38230;-78
2021/10/06 12:34:24;;;;;;;16.63;3.13;;;14.50;99.90;;;;;;5065196;28;36184;-78
2021/10/06 12:36:55;;;;;;;21.80;3.30;;;14.60;99.90;;;;;;5044153;28;47127;-79
2021/10/06 12:39:28;;;;;;;22.00;3.47;;;14.50;99.90;;;;;;5062944;28;38608;-80
2021/10/06 12:41:58;;;;;;;14.35;2.97;;;14.40;99.90;;;;;;5062662;28;38825;-79
2021/10/06 12:44:27;;;;;;;19.25;3.33;;;14.40;99.90;;;;;;5068706;28;38393;-79